Terminal Aerodrome Forecast
Issued by NWS

Home | Current Version | Previous Version | Text Only | Print | Product List | Glossary On
Versions: 1 2 3 4 5 6 7 8 9 10 11 12 13 14
000
FTUS43 KDVN 312300
TAFCID
TAF
KCID 312320Z 0100/0124 27006KT P6SM SCT050
      TEMPO 0110/0113 5SM BR
     FM011500 20005KT P6SM SCT040=

USA.gov is the U.S. government's official web portal to all federal, state and local government web resources and services.